Time;durP1;ratioP1;P1;durP2;ratioP2;P2;SDS_P1;SDS_P2;PMS_P1;PMS_P2;Temp;Humidity;BMP_temperature;BMP_pressure;BME280_temperature;BME280_humidity;BME280_pressure;Samples;Min_cycle;Max_cycle;Signal;HPM_P1;HPM_P2
2022/03/08 00:01:18;;;;;;;33.60;13.77;;;;;;;-4.45;57.07;94125.16;5008856;28;20044;-61
2022/03/08 00:03:44;;;;;;;35.20;14.50;;;;;;;-4.42;57.14;94130.69;5010703;28;20509;-61
2022/03/08 00:06:12;;;;;;;33.27;13.17;;;;;;;-4.41;57.15;94115.41;5048183;28;20056;-62
2022/03/08 00:08:42;;;;;;;36.75;13.32;;;;;;;-4.49;57.21;94122.31;5047268;28;20052;-61
2022/03/08 00:11:09;;;;;;;33.92;14.57;;;;;;;-4.47;57.37;94117.44;5048272;28;20052;-61
2022/03/08 00:13:37;;;;;;;34.22;13.88;;;;;;;-4.49;56.95;94121.53;5048672;28;20029;-62
2022/03/08 00:16:04;;;;;;;32.72;14.05;;;;;;;-4.47;57.00;94127.38;5047932;28;20094;-61
2022/03/08 00:18:32;;;;;;;38.70;13.80;;;;;;;-4.53;56.94;94131.31;5048599;28;20048;-62
2022/03/08 00:20:59;;;;;;;33.92;14.32;;;;;;;-4.47;56.18;94122.81;5047756;28;20049;-61
2022/03/08 00:23:26;;;;;;;32.50;13.65;;;;;;;-4.40;55.57;94118.88;5047022;28;20398;-61
2022/03/08 00:25:53;;;;;;;33.75;13.52;;;;;;;-4.40;55.64;94108.19;5048169;28;20037;-62
2022/03/08 00:28:19;;;;;;;31.85;13.43;;;;;;;-4.45;55.59;94109.09;5048040;28;20047;-62
2022/03/08 00:34:19;;;;;;;29.48;11.77;;;;;;;-4.48;56.05;94109.75;5066948;28;21796;-63
2022/03/08 00:36:45;;;;;;;32.67;12.82;;;;;;;-4.49;56.01;94111.63;5067902;28;20044;-62
2022/03/08 00:39:12;;;;;;;32.40;14.20;;;;;;;-4.60;56.27;94102.34;5067390;28;20036;-61
2022/03/08 00:41:39;;;;;;;33.17;13.63;;;;;;;-4.55;56.15;94112.09;5050684;28;20041;-61
2022/03/08 00:44:06;;;;;;;31.20;13.23;;;;;;;-4.55;55.93;94107.53;5037691;28;20048;-62
2022/03/08 00:46:33;;;;;;;32.92;12.95;;;;;;;-4.45;55.12;94106.41;5047722;28;20102;-61
2022/03/08 00:49:00;;;;;;;33.95;13.85;;;;;;;-4.51;55.73;94103.09;5047287;28;20053;-62
2022/03/08 00:51:26;;;;;;;31.55;12.70;;;;;;;-4.50;55.61;94114.63;5048001;28;20047;-61
2022/03/08 00:53:53;;;;;;;34.10;13.73;;;;;;;-4.58;55.96;94107.38;5047568;28;20044;-62
2022/03/08 00:56:20;;;;;;;32.77;13.10;;;;;;;-4.51;55.30;94105.00;5047715;28;20051;-62
2022/03/08 00:58:47;;;;;;;32.00;12.82;;;;;;;-4.58;55.77;94104.72;5047505;28;20045;-61
2022/03/08 01:01:14;;;;;;;32.47;13.18;;;;;;;-4.56;55.70;94110.53;5047444;28;20037;-62
2022/03/08 01:03:41;;;;;;;35.13;13.25;;;;;;;-4.64;56.44;94106.75;5048135;28;20620;-63
2022/03/08 01:06:08;;;;;;;33.47;13.07;;;;;;;-4.67;56.61;94115.41;5067242;28;20057;-61
2022/03/08 01:08:35;;;;;;;33.33;13.07;;;;;;;-4.60;56.74;94106.91;5067825;28;20041;-61
2022/03/08 01:11:02;;;;;;;34.75;13.88;;;;;;;-4.55;56.34;94112.88;5067022;28;20046;-61
2022/03/08 01:13:29;;;;;;;32.72;13.68;;;;;;;-4.49;55.90;94100.13;5067861;28;20040;-62
2022/03/08 01:15:56;;;;;;;31.70;12.82;;;;;;;-4.58;56.70;94105.50;5066770;28;20401;-59
2022/03/08 01:18:23;;;;;;;32.45;12.63;;;;;;;-4.57;55.85;94108.94;5067626;28;20041;-61
2022/03/08 01:20:50;;;;;;;31.27;12.87;;;;;;;-4.60;56.54;94107.69;5067617;28;20048;-61
2022/03/08 01:23:17;;;;;;;33.22;13.63;;;;;;;-4.63;56.91;94097.59;5067199;28;20048;-61
2022/03/08 01:25:44;;;;;;;33.03;13.32;;;;;;;-4.66;57.32;94103.59;5067288;28;20045;-61
2022/03/08 01:28:11;;;;;;;33.75;13.88;;;;;;;-4.71;57.18;94106.41;5065909;28;20056;-61
2022/03/08 01:30:38;;;;;;;35.28;13.65;;;;;;;-4.72;56.77;94107.53;5067560;28;20045;-61
2022/03/08 01:33:04;;;;;;;34.73;14.27;;;;;;;-4.71;57.30;94103.75;5065577;28;20039;-62
2022/03/08 01:35:31;;;;;;;34.85;14.23;;;;;;;-4.69;58.22;94098.84;5067541;28;20044;-61
2022/03/08 01:37:58;;;;;;;35.42;15.25;;;;;;;-4.56;57.48;94107.84;5066799;28;20040;-62
2022/03/08 01:40:25;;;;;;;35.65;13.68;;;;;;;-4.62;57.01;94101.88;5067410;28;20044;-62
2022/03/08 01:42:52;;;;;;;33.97;13.63;;;;;;;-4.64;57.40;94096.03;5066052;28;20044;-61
2022/03/08 01:45:22;;;;;;;33.47;13.40;;;;;;;-4.72;57.56;94089.56;5066833;28;20041;-61
2022/03/08 01:47:49;;;;;;;32.70;13.15;;;;;;;-4.71;57.07;94090.34;5067156;28;20508;-61
2022/03/08 01:50:17;;;;;;;32.55;13.70;;;;;;;-4.69;57.29;94093.50;5066862;28;20142;-62
2022/03/08 01:52:44;;;;;;;35.15;13.98;;;;;;;-4.70;57.05;94098.06;5066923;28;20067;-62
2022/03/08 01:55:13;;;;;;;33.45;13.63;;;;;;;-4.71;57.39;94088.50;5065261;28;20418;-61
2022/03/08 01:57:39;;;;;;;34.50;13.83;;;;;;;-4.79;57.93;94080.44;5070131;28;20485;-61
2022/03/08 02:00:11;;;;;;;33.95;13.35;;;;;;;-4.77;57.74;94078.22;5070305;28;20045;-62
2022/03/08 02:02:39;;;;;;;32.65;13.40;;;;;;;-4.83;58.05;94075.72;5071315;28;20375;-62
2022/03/08 02:05:07;;;;;;;31.20;13.15;;;;;;;-4.89;57.77;94079.66;5056755;28;20053;-61
2022/03/08 02:07:33;;;;;;;33.70;13.32;;;;;;;-4.88;58.08;94072.41;5050935;28;20408;-61
2022/03/08 02:10:00;;;;;;;35.03;12.97;;;;;;;-4.85;57.74;94071.75;5049956;28;20051;-62
2022/03/08 02:12:27;;;;;;;33.33;13.60;;;;;;;-4.89;58.33;94062.78;5050974;28;20048;-61
2022/03/08 02:14:54;;;;;;;33.78;13.35;;;;;;;-4.86;58.27;94068.31;5049526;28;20052;-61
2022/03/08 02:17:20;;;;;;;33.80;13.65;;;;;;;-4.88;57.80;94070.50;5049804;28;20129;-62
2022/03/08 02:19:48;;;;;;;35.45;14.30;;;;;;;-4.85;58.20;94066.41;5050607;28;20035;-62
2022/03/08 02:22:15;;;;;;;36.77;14.47;;;;;;;-4.97;58.56;94067.06;5050157;28;20048;-61
2022/03/08 02:24:41;;;;;;;38.47;14.88;;;;;;;-4.87;57.95;94065.94;5050532;28;20075;-61
2022/03/08 02:27:08;;;;;;;36.25;14.85;;;;;;;-4.89;58.17;94057.44;5048614;28;20033;-62
2022/03/08 02:29:36;;;;;;;35.60;13.90;;;;;;;-4.98;58.58;94062.78;5050696;28;20437;-62
2022/03/08 02:32:03;;;;;;;32.60;13.32;;;;;;;-4.98;58.33;94065.47;5049957;28;20041;-61
2022/03/08 02:34:30;;;;;;;34.03;12.87;;;;;;;-4.96;58.88;94068.63;5050643;28;20045;-61
2022/03/08 02:37:05;;;;;;;34.85;13.85;;;;;;;-5.05;58.91;94075.84;5048564;28;20049;-61
2022/03/08 02:39:31;;;;;;;34.85;14.38;;;;;;;-5.09;59.65;94064.19;5050480;28;20044;-61
2022/03/08 02:41:59;;;;;;;37.00;13.98;;;;;;;-5.02;58.64;94067.97;5049473;28;20075;-62
2022/03/08 02:44:27;;;;;;;32.80;13.40;;;;;;;-5.00;58.77;94065.00;5050350;28;20056;-62
2022/03/08 02:46:54;;;;;;;31.27;12.57;;;;;;;-5.02;58.76;94065.28;5049966;28;20036;-62
2022/03/08 02:49:21;;;;;;;32.83;13.00;;;;;;;-4.97;58.40;94066.25;5049261;28;20716;-61
2022/03/08 02:51:48;;;;;;;32.38;12.70;;;;;;;-5.00;59.12;94061.53;5050027;28;20120;-62
2022/03/08 02:54:15;;;;;;;34.78;13.48;;;;;;;-4.94;58.14;94069.09;5049849;28;20074;-61
2022/03/08 02:56:42;;;;;;;32.92;14.77;;;;;;;-5.02;58.42;94061.84;5049040;28;20040;-61
2022/03/08 02:59:08;;;;;;;33.47;13.03;;;;;;;-5.00;58.65;94059.63;5049394;28;20044;-61
2022/03/08 03:01:35;;;;;;;34.40;12.88;;;;;;;-5.02;58.58;94062.63;5048347;28;20059;-61
2022/03/08 03:04:02;;;;;;;33.08;13.15;;;;;;;-5.00;58.12;94058.84;5052568;28;20049;-61
2022/03/08 03:06:29;;;;;;;33.70;13.35;;;;;;;-4.99;58.75;94055.84;5065257;28;20059;-62
2022/03/08 03:08:55;;;;;;;31.60;12.10;;;;;;;-5.07;58.92;94056.63;5073834;28;20037;-59
2022/03/08 03:11:22;;;;;;;40.33;16.40;;;;;;;-5.05;58.63;94059.78;5031467;28;20045;-62
2022/03/08 03:13:49;;;;;;;38.50;14.07;;;;;;;-4.98;58.40;94060.13;5061397;28;20038;-62
2022/03/08 03:16:16;;;;;;;35.08;13.73;;;;;;;-5.00;58.37;94069.56;5029133;28;20053;-61
2022/03/08 03:18:42;;;;;;;33.67;12.95;;;;;;;-5.10;58.30;94063.41;5045188;28;20052;-61
2022/03/08 03:21:09;;;;;;;32.20;12.45;;;;;;;-5.17;59.29;94060.41;5027355;28;20057;-62
2022/03/08 03:23:36;;;;;;;33.50;12.77;;;;;;;-5.17;58.43;94065.78;5029747;28;20036;-61
2022/03/08 03:26:02;;;;;;;29.77;12.57;;;;;;;-5.18;58.44;94066.84;5061007;28;20037;-61
2022/03/08 03:28:30;;;;;;;29.85;12.32;;;;;;;-5.21;58.22;94070.16;5029764;28;20045;-60
2022/03/08 03:30:56;;;;;;;32.92;13.02;;;;;;;-5.26;58.23;94067.63;5028780;28;20394;-60
2022/03/08 03:33:23;;;;;;;32.33;12.85;;;;;;;-5.24;58.78;94057.41;5061515;28;20553;-60
2022/03/08 03:35:50;;;;;;;30.40;12.23;;;;;;;-5.14;58.13;94069.69;5027991;28;20446;-59
2022/03/08 03:38:17;;;;;;;33.05;13.05;;;;;;;-5.15;58.56;94060.09;5028811;28;20045;-60
2022/03/08 03:40:44;;;;;;;34.07;13.17;;;;;;;-5.18;58.25;94069.53;5044508;28;20585;-61
2022/03/08 03:43:11;;;;;;;35.33;12.60;;;;;;;-5.26;58.62;94064.94;5028773;28;20045;-60
2022/03/08 03:45:38;;;;;;;32.45;13.13;;;;;;;-5.32;58.59;94058.94;5029443;28;20548;-60
2022/03/08 03:48:05;;;;;;;31.53;12.60;;;;;;;-5.25;58.23;94069.22;5028519;28;20445;-60
2022/03/08 03:50:32;;;;;;;35.17;13.68;;;;;;;-5.18;58.10;94055.38;5029210;28;20041;-59
2022/03/08 03:52:59;;;;;;;35.00;13.80;;;;;;;-5.24;58.41;94057.41;5028426;28;20089;-60
2022/03/08 03:55:25;;;;;;;31.50;11.93;;;;;;;-5.24;58.66;94054.72;5029048;28;20048;-60
2022/03/08 03:57:52;;;;;;;31.13;12.95;;;;;;;-5.25;58.27;94045.13;5027381;28;20047;-59
2022/03/08 04:00:19;;;;;;;30.30;12.03;;;;;;;-5.28;58.50;94049.22;5060348;28;20045;-60
2022/03/08 04:02:46;;;;;;;31.42;12.77;;;;;;;-5.26;58.63;94044.34;5028949;28;20039;-59
2022/03/08 04:05:13;;;;;;;29.17;12.75;;;;;;;-5.17;58.03;94040.88;5086271;28;20055;-60
2022/03/08 04:07:40;;;;;;;32.40;13.88;;;;;;;-5.18;58.31;94045.44;5068654;28;20059;-60
2022/03/08 04:10:09;;;;;;;28.60;12.35;;;;;;;-5.10;58.04;94042.00;5067729;28;20049;-60
2022/03/08 04:12:36;;;;;;;30.93;11.83;;;;;;;-5.11;57.84;94035.09;5068641;28;20050;-59
2022/03/08 04:15:03;;;;;;;32.70;12.85;;;;;;;-5.16;58.00;94035.22;5067822;28;20044;-60
2022/03/08 04:17:30;;;;;;;32.20;12.35;;;;;;;-5.15;57.82;94041.34;5068424;28;20032;-60
2022/03/08 04:19:57;;;;;;;29.08;11.88;;;;;;;-5.08;57.52;94042.47;5066861;28;20521;-60
2022/03/08 04:22:23;;;;;;;30.60;12.02;;;;;;;-5.04;57.47;94037.28;5068420;28;20046;-59
2022/03/08 04:24:56;;;;;;;30.93;12.90;;;;;;;-5.05;56.44;94038.38;5067679;28;20044;-59
2022/03/08 04:27:23;;;;;;;30.00;11.80;;;;;;;-5.14;57.34;94035.69;5068455;28;20161;-59
2022/03/08 04:29:49;;;;;;;31.92;12.82;;;;;;;-5.13;57.24;94028.44;5068514;28;20032;-60
2022/03/08 04:32:16;;;;;;;34.78;12.43;;;;;;;-5.12;57.58;94032.72;5061776;28;20060;-59
2022/03/08 04:34:43;;;;;;;30.52;12.85;;;;;;;-5.10;57.53;94036.66;5032707;28;20044;-59
2022/03/08 04:37:10;;;;;;;34.03;13.40;;;;;;;-5.11;57.42;94027.06;5047331;28;20075;-60
2022/03/08 04:39:37;;;;;;;32.30;12.60;;;;;;;-5.10;57.18;94033.19;5048171;28;20049;-60
2022/03/08 04:42:04;;;;;;;31.02;12.13;;;;;;;-5.05;56.72;94025.78;5047286;28;20057;-59
2022/03/08 04:44:31;;;;;;;33.13;12.88;;;;;;;-5.17;57.28;94031.00;5048148;28;20741;-59
2022/03/08 04:46:58;;;;;;;27.73;11.18;;;;;;;-5.19;56.94;94030.50;5045996;28;20041;-60
2022/03/08 04:49:25;;;;;;;30.10;11.50;;;;;;;-5.09;57.10;94016.00;5048286;28;20048;-60
2022/03/08 04:51:52;;;;;;;31.00;11.82;;;;;;;-5.11;56.60;94018.22;5048006;28;20700;-60
2022/03/08 04:54:18;;;;;;;31.63;12.45;;;;;;;-5.12;56.90;94032.72;5047231;28;20043;-59
2022/03/08 04:56:45;;;;;;;30.85;12.20;;;;;;;-5.17;56.71;94022.97;5047901;28;20049;-60
2022/03/08 04:59:12;;;;;;;29.50;11.52;;;;;;;-5.11;56.75;94008.31;5045781;28;20037;-60
2022/03/08 05:01:38;;;;;;;28.90;11.33;;;;;;;-5.12;56.56;94022.78;5047565;28;20071;-60
2022/03/08 05:04:05;;;;;;;29.52;12.10;;;;;;;-5.08;56.39;94007.69;5050630;28;20043;-60
2022/03/08 05:06:32;;;;;;;30.83;11.13;;;;;;;-5.04;55.96;94013.97;5067946;28;20032;-60
2022/03/08 05:08:59;;;;;;;28.35;10.95;;;;;;;-5.01;55.69;94017.91;5066958;28;20056;-60
2022/03/08 05:11:26;;;;;;;28.60;11.60;;;;;;;-5.00;55.92;94024.84;5067722;28;20040;-60
2022/03/08 05:13:52;;;;;;;28.40;11.13;;;;;;;-5.00;56.15;94019.50;5067451;28;20044;-60
2022/03/08 05:16:19;;;;;;;30.23;11.68;;;;;;;-5.02;56.13;94016.34;5048516;28;20044;-60
2022/03/08 05:18:46;;;;;;;31.75;13.60;;;;;;;-5.15;56.81;94009.25;5067373;28;20518;-62
2022/03/08 05:21:13;;;;;;;32.50;13.48;;;;;;;-5.12;56.57;94014.75;5066457;28;20045;-60
2022/03/08 05:23:39;;;;;;;32.42;12.52;;;;;;;-5.09;56.95;94008.00;5067036;28;20101;-60
2022/03/08 05:26:07;;;;;;;31.13;11.27;;;;;;;-4.98;56.58;94009.25;5066830;28;20048;-60
2022/03/08 05:28:34;;;;;;;27.98;11.45;;;;;;;-5.00;56.28;94011.47;5067354;28;20077;-61
2022/03/08 05:31:00;;;;;;;28.17;11.27;;;;;;;-4.97;56.16;94020.75;5067582;28;20032;-60
2022/03/08 05:33:27;;;;;;;29.77;11.60;;;;;;;-4.94;55.60;94004.84;5044404;28;20095;-60
2022/03/08 05:35:54;;;;;;;31.05;11.27;;;;;;;-4.94;55.90;94012.88;5047448;28;20043;-61
2022/03/08 05:38:21;;;;;;;23.87;9.87;;;;;;;-4.98;55.30;93998.56;5053046;28;20722;-60
2022/03/08 05:40:48;;;;;;;26.73;10.77;;;;;;;-4.96;56.09;94003.59;5052317;28;20048;-63
2022/03/08 05:43:15;;;;;;;27.05;11.05;;;;;;;-4.92;55.04;94008.00;5052664;28;20103;-59
2022/03/08 05:45:41;;;;;;;26.08;10.80;;;;;;;-4.94;55.19;93998.72;5053864;28;20038;-60
2022/03/08 05:48:09;;;;;;;24.58;10.43;;;;;;;-4.94;55.02;94004.06;5053265;28;20508;-60
2022/03/08 05:50:36;;;;;;;26.47;10.47;;;;;;;-4.85;55.36;93999.50;5053837;28;20029;-60
2022/03/08 05:53:03;;;;;;;27.90;11.00;;;;;;;-4.90;55.73;93986.28;5052969;28;20043;-61
2022/03/08 05:55:30;;;;;;;28.23;10.85;;;;;;;-4.93;56.12;93992.25;5053786;28;20044;-60
2022/03/08 05:57:57;;;;;;;24.85;10.18;;;;;;;-4.89;55.80;93996.69;5053220;28;20047;-63
2022/03/08 06:00:24;;;;;;;30.02;13.07;;;;;;;-4.88;55.51;94000.91;5053658;28;20051;-61
2022/03/08 06:02:50;;;;;;;27.53;10.87;;;;;;;-4.82;55.59;94004.22;5053499;28;20152;-60
2022/03/08 06:05:18;;;;;;;30.50;11.80;;;;;;;-4.83;55.33;94003.44;5066480;27;20049;-61
2022/03/08 06:07:50;;;;;;;26.38;10.93;;;;;;;-4.67;56.15;93995.72;5072514;28;20040;-60
2022/03/08 06:10:16;;;;;;;28.48;12.27;;;;;;;-4.65;54.94;94001.53;5072738;27;20047;-60
2022/03/08 06:12:44;;;;;;;30.70;12.13;;;;;;;-4.59;54.97;93999.47;5073768;28;20052;-60
2022/03/08 06:15:11;;;;;;;28.20;11.63;;;;;;;-4.53;54.44;94000.09;5072865;27;20049;-60
2022/03/08 06:17:38;;;;;;;26.95;11.30;;;;;;;-4.60;54.95;94000.56;5073387;28;20047;-60
2022/03/08 06:20:06;;;;;;;28.80;11.30;;;;;;;-4.49;54.63;94006.38;5072997;27;20036;-60
2022/03/08 06:22:32;;;;;;;26.33;11.18;;;;;;;-4.43;54.49;94007.78;5073427;27;20033;-60
2022/03/08 06:24:59;;;;;;;20.42;8.57;;;;;;;-4.45;55.46;94008.13;5072906;28;20063;-63
2022/03/08 06:27:26;;;;;;;24.53;10.07;;;;;;;-4.36;54.55;94002.75;5073629;27;20045;-61
2022/03/08 06:29:53;;;;;;;26.42;10.65;;;;;;;-4.42;54.34;94017.41;5073708;28;20059;-61
2022/03/08 06:32:20;;;;;;;27.65;11.23;;;;;;;-4.39;54.82;94015.97;5071613;28;20041;-60
2022/03/08 06:34:46;;;;;;;27.95;10.60;;;;;;;-4.21;54.00;94020.19;5073419;27;20044;-59
2022/03/08 06:37:13;;;;;;;28.20;11.32;;;;;;;-4.26;54.53;94023.03;5060072;27;20045;-60
2022/03/08 06:39:40;;;;;;;28.40;11.17;;;;;;;-4.14;54.49;94027.75;5042231;28;20045;-60
2022/03/08 06:42:07;;;;;;;27.63;11.30;;;;;;;-4.13;53.88;94019.38;5051840;28;20048;-60
2022/03/08 06:44:34;;;;;;;32.53;11.75;;;;;;;-4.12;54.16;94025.53;5049173;28;20099;-60
2022/03/08 06:47:01;;;;;;;26.83;10.95;;;;;;;-4.04;53.57;94036.22;5049213;28;20140;-63
2022/03/08 06:49:27;;;;;;;29.50;12.45;;;;;;;-4.08;53.70;94040.66;5050061;28;20052;-60
2022/03/08 06:51:54;;;;;;;29.47;12.33;;;;;;;-3.94;54.24;94036.97;5050244;28;20037;-60
2022/03/08 06:54:21;;;;;;;27.42;11.10;;;;;;;-3.86;54.27;94042.31;5048980;28;20181;-62
2022/03/08 06:56:47;;;;;;;29.55;12.50;;;;;;;-3.63;53.67;94042.06;5050121;28;20049;-60
2022/03/08 06:59:14;;;;;;;28.60;12.43;;;;;;;-3.55;53.08;94051.19;5047929;28;20053;-60
2022/03/08 07:01:41;;;;;;;28.83;11.38;;;;;;;-3.47;53.11;94050.34;5048475;28;20045;-60
2022/03/08 07:04:08;;;;;;;29.23;11.40;;;;;;;-3.42;52.68;94048.28;5053185;28;20052;-60
2022/03/08 07:06:35;;;;;;;28.15;12.07;;;;;;;-3.24;52.51;94054.34;5068481;28;20040;-59
2022/03/08 07:09:02;;;;;;;27.67;12.00;;;;;;;-3.08;51.95;94051.06;5055074;28;20067;-63
2022/03/08 07:11:29;;;;;;;26.50;10.98;;;;;;;-2.91;51.13;94055.56;5041489;28;20060;-61
2022/03/08 07:13:56;;;;;;;30.40;12.10;;;;;;;-2.73;50.78;94057.00;5061170;28;20500;-57
2022/03/08 07:16:23;;;;;;;26.30;11.03;;;;;;;-2.81;51.01;94065.91;5029259;28;20049;-60
2022/03/08 07:18:50;;;;;;;28.08;11.32;;;;;;;-2.62;50.57;94070.81;5029939;28;20593;-60
2022/03/08 07:21:16;;;;;;;33.85;12.40;;;;;;;-2.58;50.23;94073.63;5027489;28;20068;-59
2022/03/08 07:23:43;;;;;;;26.88;12.32;;;;;;;-2.53;50.52;94079.59;5029413;28;20055;-59
2022/03/08 07:26:10;;;;;;;28.23;12.20;;;;;;;-2.37;50.17;94073.59;5060779;28;20092;-60
2022/03/08 07:28:40;;;;;;;31.23;12.87;;;;;;;-2.05;49.91;94086.28;5028081;28;20562;-60
2022/03/08 07:31:06;;;;;;;27.08;12.15;;;;;;;-1.75;48.59;94088.03;5027300;28;20494;-60
2022/03/08 07:33:34;;;;;;;27.17;11.85;;;;;;;0.26;48.28;94086.72;5032367;28;20047;-59
2022/03/08 07:36:03;;;;;;;25.85;11.77;;;;;;;4.17;37.65;94079.78;5026906;28;20045;-60
2022/03/08 07:38:30;;;;;;;25.33;12.70;;;;;;;6.02;32.67;94083.63;5028846;28;20400;-60
2022/03/08 07:41:02;;;;;;;24.30;13.40;;;;;;;7.19;30.24;94066.78;5028771;28;20182;-61
2022/03/08 07:43:30;;;;;;;26.05;13.80;;;;;;;7.80;27.81;94068.66;5029140;28;20041;-61
2022/03/08 07:45:57;;;;;;;23.58;13.95;;;;;;;6.76;30.13;94077.66;5028500;28;20050;-59
2022/03/08 07:48:24;;;;;;;23.10;13.85;;;;;;;7.53;28.15;94080.03;5028741;28;20099;-61
2022/03/08 07:50:51;;;;;;;25.17;14.30;;;;;;;6.46;28.92;94086.16;5028882;28;20034;-60
2022/03/08 07:53:17;;;;;;;23.43;14.40;;;;;;;9.25;26.51;94092.22;5027874;28;20423;-60
2022/03/08 07:55:44;;;;;;;21.35;13.82;;;;;;;7.49;28.54;94089.41;5029266;28;20056;-61
2022/03/08 07:58:13;;;;;;;21.70;13.85;;;;;;;7.39;27.21;94093.69;5026701;28;20045;-60
2022/03/08 08:00:41;;;;;;;22.90;14.50;;;;;;;8.98;26.49;94097.50;5011360;28;20075;-60
2022/03/08 08:03:08;;;;;;;22.33;13.45;;;;;;;6.76;28.52;94085.03;5027910;28;20045;-60
2022/03/08 08:05:36;;;;;;;23.97;14.63;;;;;;;7.24;28.86;94103.81;5059634;28;20063;-60
2022/03/08 08:08:05;;;;;;;24.20;15.45;;;;;;;6.84;28.32;94088.56;5067167;28;20045;-61
2022/03/08 08:10:32;;;;;;;23.63;15.52;;;;;;;8.89;25.79;94100.66;5031195;28;20052;-60
2022/03/08 08:13:01;;;;;;;23.27;14.77;;;;;;;9.19;26.33;94097.38;5047067;28;20049;-60
2022/03/08 08:15:27;;;;;;;23.73;15.90;;;;;;;9.34;25.81;94091.78;5048437;28;20036;-61
2022/03/08 08:17:54;;;;;;;23.90;15.00;;;;;;;11.28;24.15;94101.34;5048410;28;20033;-61
2022/03/08 08:20:21;;;;;;;22.90;15.00;;;;;;;11.54;22.52;94090.75;5047413;28;20043;-61
2022/03/08 08:22:48;;;;;;;22.42;15.23;;;;;;;12.94;22.12;94093.69;5048158;28;20448;-61
2022/03/08 08:25:15;;;;;;;21.73;14.75;;;;;;;11.31;22.70;94095.03;5047678;28;20074;-61
2022/03/08 08:27:42;;;;;;;23.55;16.27;;;;;;;10.25;24.52;94097.97;5048432;28;20142;-61
2022/03/08 08:30:13;;;;;;;26.77;16.23;;;;;;;11.97;22.40;94074.34;5047531;28;20442;-61
2022/03/08 08:32:41;;;;;;;21.85;15.63;;;;;;;11.94;22.62;94093.66;5048320;28;20037;-61
2022/03/08 08:35:08;;;;;;;23.92;15.93;;;;;;;13.12;21.37;94090.50;5047576;28;20037;-61
2022/03/08 08:37:35;;;;;;;23.83;15.98;;;;;;;13.28;21.21;94100.78;5048296;28;20055;-61
2022/03/08 08:40:04;;;;;;;22.20;15.32;;;;;;;12.28;21.51;94101.69;5047619;28;20557;-61
2022/03/08 08:42:31;;;;;;;23.40;16.57;;;;;;;12.36;21.84;94083.81;5047803;28;20090;-62
2022/03/08 08:44:58;;;;;;;26.60;16.23;;;;;;;13.73;20.47;94084.41;5047353;28;20059;-62
2022/03/08 08:47:24;;;;;;;25.58;18.83;;;;;;;14.22;20.13;94072.50;5047898;28;20443;-61
2022/03/08 08:49:51;;;;;;;23.65;16.13;;;;;;;10.21;23.33;94081.56;5048107;28;20044;-61
2022/03/08 08:52:18;;;;;;;22.40;16.60;;;;;;;10.51;23.43;94067.09;5045981;28;20047;-61
2022/03/08 08:54:47;;;;;;;25.43;16.27;;;;;;;13.48;21.06;94065.72;5047971;28;20044;-61
2022/03/08 08:57:14;;;;;;;21.80;15.65;;;;;;;12.53;21.19;94065.41;5046859;28;20047;-62
2022/03/08 08:59:41;;;;;;;22.17;15.85;;;;;;;10.51;23.60;94056.13;5047778;28;20049;-63
2022/03/08 09:02:09;;;;;;;22.33;16.15;;;;;;;14.80;19.76;94057.91;5047939;28;20040;-65
2022/03/08 09:04:36;;;;;;;20.73;15.35;;;;;;;17.41;17.67;94046.72;5055735;28;20045;-62
2022/03/08 09:07:04;;;;;;;21.33;15.80;;;;;;;17.62;16.68;94037.53;5066696;28;20043;-62
2022/03/08 09:09:31;;;;;;;21.40;15.65;;;;;;;18.80;15.78;94040.13;5050959;28;20063;-62
2022/03/08 09:11:58;;;;;;;22.55;17.30;;;;;;;17.59;16.25;94041.22;5027720;28;20038;-63
2022/03/08 09:14:25;;;;;;;22.27;16.15;;;;;;;19.38;15.81;94046.59;5027832;28;20055;-62
2022/03/08 09:16:55;;;;;;;24.13;17.98;;;;;;;13.11;20.38;94045.66;5026074;28;20050;-62
2022/03/08 09:19:22;;;;;;;23.20;17.27;;;;;;;13.51;20.13;94051.06;5026636;28;20099;-62
2022/03/08 09:21:51;;;;;;;24.55;18.17;;;;;;;12.37;21.54;94051.56;5027826;28;20045;-61
2022/03/08 09:24:18;;;;;;;24.05;17.38;;;;;;;13.51;20.46;94047.53;5027139;28;20479;-62
2022/03/08 09:26:45;;;;;;;23.77;16.13;;;;;;;12.39;21.80;94052.72;5026340;28;20029;-62
2022/03/08 09:29:12;;;;;;;27.10;17.38;;;;;;;13.84;20.25;94048.25;5025894;28;20501;-62
2022/03/08 09:31:39;;;;;;;23.00;16.57;;;;;;;13.91;20.94;94050.84;5026364;28;20038;-62
2022/03/08 09:34:06;;;;;;;22.77;16.88;;;;;;;14.26;19.00;94044.81;5027120;28;20048;-62
2022/03/08 09:36:33;;;;;;;23.15;16.50;;;;;;;16.20;18.60;94033.31;5027413;28;20037;-62
2022/03/08 09:39:00;;;;;;;24.25;17.52;;;;;;;10.55;22.92;94042.38;5027213;28;20106;-62
2022/03/08 09:41:27;;;;;;;25.42;18.02;;;;;;;10.87;23.08;94036.44;5027573;28;20041;-62
2022/03/08 09:43:54;;;;;;;24.33;17.77;;;;;;;12.33;21.41;94045.38;5027676;28;20048;-62
2022/03/08 09:46:22;;;;;;;23.13;17.20;;;;;;;15.47;19.22;94028.63;5026413;28;20550;-62
2022/03/08 09:48:49;;;;;;;23.63;16.40;;;;;;;18.44;16.55;94011.09;5027643;28;20044;-62
2022/03/08 09:51:17;;;;;;;21.08;16.42;;;;;;;19.51;15.83;94012.97;5026821;28;20055;-63
2022/03/08 09:53:44;;;;;;;26.90;18.30;;;;;;;18.32;15.54;94020.38;5027405;28;20041;-62
2022/03/08 09:56:11;;;;;;;21.67;16.60;;;;;;;16.13;18.35;94028.81;5027039;28;20041;-65
2022/03/08 09:58:40;;;;;;;25.20;17.25;;;;;;;17.38;15.52;94028.97;5026158;28;20403;-62
2022/03/08 10:01:07;;;;;;;22.23;16.70;;;;;;;19.22;15.53;94033.06;5026688;28;20063;-62
2022/03/08 10:03:38;;;;;;;20.10;15.75;;;;;;;20.60;14.40;94029.47;5027168;28;20038;-62
2022/03/08 10:06:07;;;;;;;21.45;15.88;;;;;;;18.44;15.30;94033.31;5026989;28;20101;-62
2022/03/08 10:08:34;;;;;;;21.70;16.63;;;;;;;13.22;19.88;94039.91;5026724;28;20141;-62
2022/03/08 10:11:03;;;;;;;21.88;16.58;;;;;;;16.06;17.65;94031.84;5026948;28;20364;-63
2022/03/08 10:13:50;;;;;;;22.20;15.93;;;;;;;12.48;20.82;94035.63;5027535;28;20045;-62
2022/03/08 10:16:22;;;;;;;21.40;15.90;;;;;;;11.95;21.96;94034.69;5026279;28;20044;-62
2022/03/08 10:18:53;;;;;;;20.30;15.05;;;;;;;13.17;21.00;94037.66;5028572;28;20045;-62
2022/03/08 10:21:47;;;;;;;22.17;15.27;;;;;;;13.97;19.79;94038.06;5030475;28;20041;-63
2022/03/08 10:24:17;;;;;;;20.48;15.25;;;;;;;11.03;21.21;94033.06;5028771;28;20043;-62
2022/03/08 10:27:03;;;;;;;19.77;14.50;;;;;;;12.04;21.58;94040.41;5030804;28;20038;-62
2022/03/08 10:29:36;;;;;;;24.17;16.05;;;;;;;10.25;23.44;94043.13;5029759;28;20610;-62
2022/03/08 10:32:03;;;;;;;21.35;15.50;;;;;;;12.59;21.34;94035.41;5030391;28;20042;-62
2022/03/08 10:34:30;;;;;;;20.43;14.77;;;;;;;15.93;18.00;94026.34;5030427;28;20396;-62
2022/03/08 10:37:03;;;;;;;21.05;14.82;;;;;;;10.68;21.87;94035.13;5030101;28;20108;-62
2022/03/08 10:39:30;;;;;;;20.60;15.18;;;;;;;11.03;22.23;94030.31;5030581;28;20441;-62
2022/03/08 10:41:58;;;;;;;21.65;14.20;;;;;;;10.80;21.79;94042.03;5029897;28;20083;-61
2022/03/08 10:45:06;;;;;;;22.30;14.60;;;;;;;9.23;24.20;94044.50;5030148;28;20041;-61
2022/03/08 10:47:53;;;;;;;21.27;13.90;;;;;;;10.25;22.60;94035.66;5028892;28;20048;-61
2022/03/08 10:50:31;;;;;;;20.40;13.75;;;;;;;11.07;21.53;94030.28;5029814;28;20125;-63
2022/03/08 10:53:00;;;;;;;19.38;13.07;;;;;;;9.54;23.85;94048.94;5029948;28;20067;-62
2022/03/08 10:55:29;;;;;;;21.00;13.30;;;;;;;8.47;25.10;94045.03;5030272;28;20045;-61
2022/03/08 10:58:02;;;;;;;19.73;12.90;;;;;;;9.66;22.94;94046.84;5029976;28;20042;-59
2022/03/08 11:00:37;;;;;;;19.10;12.77;;;;;;;10.08;23.43;94045.66;5030339;28;20041;-61
2022/03/08 11:03:09;;;;;;;18.20;12.35;;;;;;;10.20;22.91;94047.06;5029699;28;20049;-62
2022/03/08 11:05:39;;;;;;;20.70;12.95;;;;;;;11.24;21.82;94029.19;5032413;28;20037;-62
2022/03/08 11:08:07;;;;;;;20.33;13.05;;;;;;;10.32;23.21;94040.31;5049830;28;20043;-61
2022/03/08 11:10:36;;;;;;;18.45;12.45;;;;;;;11.70;21.38;94033.16;5049652;28;20053;-61
2022/03/08 11:13:05;;;;;;;19.90;12.70;;;;;;;12.12;20.71;94032.81;5049669;28;20043;-62
2022/03/08 11:15:35;;;;;;;18.42;13.00;;;;;;;11.57;21.10;94027.50;5049288;28;20049;-63
2022/03/08 11:18:04;;;;;;;19.00;12.60;;;;;;;12.59;20.68;94022.41;5049065;28;20037;-62
2022/03/08 11:20:34;;;;;;;17.20;11.43;;;;;;;11.53;21.05;94018.53;5049395;28;20041;-62
2022/03/08 11:23:01;;;;;;;17.70;12.25;;;;;;;11.77;21.15;94021.22;5049234;28;20047;-62